Time;durP1;ratioP1;P1;durP2;ratioP2;P2;SDS_P1;SDS_P2;PMS_P1;PMS_P2;Temp;Humidity;BMP_temperature;BMP_pressure;BME280_temperature;BME280_humidity;BME280_pressure;Samples;Min_cycle;Max_cycle;Signal;HPM_P1;HPM_P2
2022/04/19 00:00:55;;;;;;;;;;;8.50;99.90;;;;;;5056183;28;19912;-75
2022/04/19 00:03:21;;;;;;;;;;;8.40;99.90;;;;;;5074046;28;19913;-75
2022/04/19 00:05:47;;;;;;;;;;;8.20;99.90;;;;;;5073856;28;19917;-75
2022/04/19 00:08:13;;;;;;;;;;;8.00;99.90;;;;;;5071306;28;19921;-75
2022/04/19 00:10:40;;;;;;;;;;;8.00;99.90;;;;;;5060670;28;20094;-75
2022/04/19 00:13:06;;;;;;;;;;;7.80;99.90;;;;;;5071938;28;19920;-75
2022/04/19 00:15:32;;;;;;;;;;;7.70;99.90;;;;;;5056804;28;20018;-75
2022/04/19 00:18:02;;;;;;;;;;;7.60;99.90;;;;;;5060093;28;20028;-76
2022/04/19 00:20:28;;;;;;;;;;;7.60;99.90;;;;;;5056085;28;19916;-76
2022/04/19 00:22:54;;;;;;;;;;;7.70;99.90;;;;;;5058189;28;19909;-75
2022/04/19 00:25:20;;;;;;;;;;;7.70;99.90;;;;;;5073002;28;19965;-74
2022/04/19 00:27:46;;;;;;;;;;;7.80;99.90;;;;;;5075819;28;19916;-79
2022/04/19 00:30:12;;;;;;;;;;;7.80;99.90;;;;;;5074818;28;20290;-75
2022/04/19 00:32:38;;;;;;;;;;;7.90;99.90;;;;;;5073641;28;19923;-75
2022/04/19 00:35:05;;;;;;;;;;;8.00;99.90;;;;;;5066096;28;19912;-75
2022/04/19 00:37:30;;;;;;;;;;;8.10;99.90;;;;;;5073606;28;19916;-75
2022/04/19 00:39:58;;;;;;;;;;;8.10;99.90;;;;;;5073573;28;19923;-75
2022/04/19 00:42:30;;;;;;;;;;;8.00;99.90;;;;;;5071509;28;19913;-75
2022/04/19 00:44:56;;;;;;;;;;;7.90;99.90;;;;;;5067039;28;19912;-75
2022/04/19 00:47:22;;;;;;;;;;;7.80;99.90;;;;;;5067548;28;20318;-76
2022/04/19 00:49:48;;;;;;;;;;;7.80;99.90;;;;;;5055404;28;20003;-75
2022/04/19 00:52:13;;;;;;;;;;;7.80;99.90;;;;;;5055405;28;19917;-76
2022/04/19 00:54:41;;;;;;;;;;;7.70;99.90;;;;;;5058961;28;19913;-75
2022/04/19 00:57:07;;;;;;;;;;;7.70;99.90;;;;;;5073535;28;19970;-75
2022/04/19 00:59:33;;;;;;;;;;;7.70;99.90;;;;;;5075339;28;19912;-75
2022/04/19 01:01:59;;;;;;;;;;;7.60;99.90;;;;;;5075839;28;19990;-79
2022/04/19 01:04:25;;;;;;;;;;;7.60;99.90;;;;;;5061677;28;19916;-75
2022/04/19 01:06:51;;;;;;;;;;;7.60;99.90;;;;;;5062160;28;19921;-75
2022/04/19 01:09:16;;;;;;;;;;;7.70;99.90;;;;;;5072359;28;19956;-74
2022/04/19 01:14:27;;;;;;;;;;;7.80;99.90;;;;;;5068782;28;20012;-75
2022/04/19 01:16:53;;;;;;;;;;;7.80;99.90;;;;;;5067095;28;19917;-76
2022/04/19 01:19:20;;;;;;;;;;;7.70;99.90;;;;;;5072495;28;19913;-75
2022/04/19 01:21:48;;;;;;;;;;;7.60;99.90;;;;;;5072576;28;19919;-75
2022/04/19 01:24:18;;;;;;;;;;;7.60;99.90;;;;;;5073034;28;19924;-75
2022/04/19 01:26:44;;;;;;;;;;;7.40;99.90;;;;;;5069789;28;21773;-75
2022/04/19 01:29:11;;;;;;;;;;;7.50;99.90;;;;;;5074059;28;20246;-79
2022/04/19 01:31:37;;;;;;;;;;;7.50;99.90;;;;;;5074268;28;19913;-75
2022/04/19 01:34:03;;;;;;;;;;;7.50;99.90;;;;;;5071178;28;19916;-75
2022/04/19 01:36:29;;;;;;;;;;;7.50;99.90;;;;;;5076081;28;19908;-75
2022/04/19 01:38:55;;;;;;;;;;;7.50;99.90;;;;;;5072605;28;19966;-76
2022/04/19 01:41:20;;;;;;;;;;;7.50;99.90;;;;;;5074931;28;19928;-77
2022/04/19 01:43:46;;;;;;;;;;;7.50;99.90;;;;;;5062129;28;19970;-75
2022/04/19 01:46:11;;;;;;;;;;;7.40;99.90;;;;;;5063920;28;19916;-75
2022/04/19 01:48:37;;;;;;;;;;;7.30;99.90;;;;;;5059370;28;20396;-75
2022/04/19 01:51:02;;;;;;;;;;;7.20;99.90;;;;;;5078420;28;19913;-75
2022/04/19 01:53:28;;;;;;;;;;;7.20;99.90;;;;;;5063615;28;19917;-75
2022/04/19 01:55:54;;;;;;;;;;;7.20;99.90;;;;;;5067680;28;19997;-75
2022/04/19 01:58:19;;;;;;;;;;;7.20;99.90;;;;;;5077343;28;20365;-76
2022/04/19 02:00:45;;;;;;;;;;;7.30;99.90;;;;;;5065158;28;19916;-76
2022/04/19 02:03:11;;;;;;;;;;;7.30;99.90;;;;;;5075231;28;19951;-76
2022/04/19 02:05:36;;;;;;;;;;;7.30;99.90;;;;;;5077315;28;19919;-75
2022/04/19 02:08:02;;;;;;;;;;;7.20;99.90;;;;;;5076518;28;19966;-78
2022/04/19 02:10:27;;;;;;;;;;;7.30;99.90;;;;;;5063133;28;19917;-76
2022/04/19 02:12:53;;;;;;;;;;;7.30;99.90;;;;;;5075022;28;20458;-76
2022/04/19 02:15:19;;;;;;;;;;;7.30;99.90;;;;;;5075811;28;19912;-76
2022/04/19 02:17:45;;;;;;;;;;;7.20;99.90;;;;;;5075357;28;20011;-75
2022/04/19 02:20:11;;;;;;;;;;;7.30;99.90;;;;;;5076170;28;19948;-75
2022/04/19 02:22:39;;;;;;;;;;;7.20;99.90;;;;;;5075284;28;20338;-75
2022/04/19 02:25:05;;;;;;;;;;;7.20;99.90;;;;;;5062408;28;19944;-78
2022/04/19 02:27:31;;;;;;;;;;;7.20;99.90;;;;;;5067720;28;20053;-75
2022/04/19 02:29:57;;;;;;;;;;;7.20;99.90;;;;;;5074739;28;20374;-75
2022/04/19 02:32:23;;;;;;;;;;;7.10;99.90;;;;;;5066302;28;20008;-75
2022/04/19 02:34:49;;;;;;;;;;;7.10;99.90;;;;;;5067073;28;19916;-79
2022/04/19 02:37:18;;;;;;;;;;;7.10;99.90;;;;;;5075345;28;19995;-75
2022/04/19 02:39:47;;;;;;;;;;;7.00;99.90;;;;;;5072839;28;19912;-75
2022/04/19 02:42:12;;;;;;;;;;;7.00;99.90;;;;;;5073667;28;19919;-76
2022/04/19 02:44:38;;;;;;;;;;;7.10;99.90;;;;;;5074834;28;19916;-76
2022/04/19 02:47:04;;;;;;;;;;;7.10;99.90;;;;;;5074664;28;20002;-75
2022/04/19 02:49:30;;;;;;;;;;;7.10;99.90;;;;;;5074847;28;19919;-75
2022/04/19 02:51:56;;;;;;;;;;;7.00;99.90;;;;;;5073840;28;19913;-76
2022/04/19 02:54:21;;;;;;;;;;;6.90;99.90;;;;;;5075211;28;19920;-76
2022/04/19 02:56:47;;;;;;;;;;;6.80;99.90;;;;;;5073431;28;19921;-75
2022/04/19 02:59:13;;;;;;;;;;;6.70;99.90;;;;;;5076146;28;19909;-76
2022/04/19 03:01:39;;;;;;;;;;;6.70;99.90;;;;;;5074295;28;19913;-76
2022/04/19 03:04:05;;;;;;;;;;;6.70;99.90;;;;;;5064580;28;19999;-75
2022/04/19 03:06:30;;;;;;;;;;;6.80;99.90;;;;;;5065882;28;20210;-76
2022/04/19 03:08:56;;;;;;;;;;;6.80;99.90;;;;;;5075790;28;19908;-75
2022/04/19 03:11:21;;;;;;;;;;;6.80;99.90;;;;;;5071205;28;19924;-75
2022/04/19 03:13:47;;;;;;;;;;;6.90;99.90;;;;;;5056772;28;19913;-76
2022/04/19 03:16:13;;;;;;;;;;;6.80;99.90;;;;;;5071697;28;19939;-76
2022/04/19 03:18:41;;;;;;;;;;;6.70;99.90;;;;;;5071182;28;20306;-75
2022/04/19 03:21:07;;;;;;;;;;;6.60;99.90;;;;;;5062476;28;19931;-78
2022/04/19 03:29:01;;;;;;;;;;;6.30;99.90;;;;;;5076005;28;20678;-75
2022/04/19 03:31:27;;;;;;;;;;;6.30;99.90;;;;;;5071993;28;19920;-76
2022/04/19 03:33:53;;;;;;;;;;;6.30;99.90;;;;;;5070158;28;20264;-76
2022/04/19 03:36:19;;;;;;;;;;;6.20;99.90;;;;;;5055391;28;19909;-75
2022/04/19 03:38:45;;;;;;;;;;;6.30;99.90;;;;;;5056806;28;19909;-78
2022/04/19 03:41:10;;;;;;;;;;;6.20;99.90;;;;;;5062555;28;19919;-77
2022/04/19 03:43:37;;;;;;;;;;;6.30;99.90;;;;;;5047587;28;19923;-76
2022/04/19 03:46:02;;;;;;;;;;;6.20;99.90;;;;;;5071072;28;19917;-76
2022/04/19 03:48:28;;;;;;;;;;;6.20;99.90;;;;;;5075290;28;19913;-75
2022/04/19 03:50:54;;;;;;;;;;;6.20;99.90;;;;;;5075602;28;19908;-76
2022/04/19 03:53:20;;;;;;;;;;;6.20;99.90;;;;;;5075962;28;19920;-76
2022/04/19 03:55:46;;;;;;;;;;;6.30;99.90;;;;;;5075407;28;19912;-75
2022/04/19 03:58:11;;;;;;;;;;;6.30;99.90;;;;;;5063608;28;19962;-76
2022/04/19 04:00:37;;;;;;;;;;;6.20;99.90;;;;;;5061740;28;19936;-75
2022/04/19 04:03:04;;;;;;;;;;;6.20;99.90;;;;;;5057816;28;19921;-76
2022/04/19 04:05:30;;;;;;;;;;;6.10;99.90;;;;;;5075142;28;19958;-79
2022/04/19 04:07:56;;;;;;;;;;;6.00;99.90;;;;;;5070836;28;19912;-76
2022/04/19 04:10:22;;;;;;;;;;;6.10;99.90;;;;;;5063706;28;19940;-76
2022/04/19 04:12:48;;;;;;;;;;;6.10;99.90;;;;;;5069998;28;20192;-76
2022/04/19 04:15:13;;;;;;;;;;;6.10;99.90;;;;;;5075960;28;20248;-76
2022/04/19 04:17:39;;;;;;;;;;;6.00;99.90;;;;;;5070878;28;19909;-76
2022/04/19 04:20:04;;;;;;;;;;;5.90;99.90;;;;;;5074426;28;19921;-76
2022/04/19 04:22:30;;;;;;;;;;;5.80;99.90;;;;;;5073719;28;19923;-76
2022/04/19 04:24:56;;;;;;;;;;;5.90;99.90;;;;;;5074059;28;19912;-76
2022/04/19 04:27:21;;;;;;;;;;;5.80;99.90;;;;;;5075283;28;20007;-75
2022/04/19 04:29:47;;;;;;;;;;;5.80;99.90;;;;;;5074496;28;19917;-75
2022/04/19 04:32:12;;;;;;;;;;;5.90;99.90;;;;;;5074591;28;19914;-78
2022/04/19 04:34:38;;;;;;;;;;;5.80;99.90;;;;;;5070635;28;19928;-76
2022/04/19 04:37:04;;;;;;;;;;;5.70;99.90;;;;;;5074345;28;20018;-76
2022/04/19 04:39:29;;;;;;;;;;;5.70;99.90;;;;;;5059709;28;19909;-76
2022/04/19 04:41:55;;;;;;;;;;;5.70;99.90;;;;;;5054017;28;19909;-76
2022/04/19 04:44:20;;;;;;;;;;;5.70;99.90;;;;;;5071430;28;19913;-76
2022/04/19 04:49:36;;;;;;;;;;;5.70;99.90;;;;;;5075815;28;20309;-78
2022/04/19 04:52:12;;;;;;;;;;;5.70;99.90;;;;;;5075369;28;20322;-76
2022/04/19 04:54:38;;;;;;;;;;;5.70;99.90;;;;;;5074134;28;20015;-79
2022/04/19 04:57:05;;;;;;;;;;;5.80;99.90;;;;;;5075574;28;20188;-76
2022/04/19 04:59:31;;;;;;;;;;;5.80;99.90;;;;;;5075607;28;19913;-79
2022/04/19 05:01:57;;;;;;;;;;;5.80;99.90;;;;;;5076503;28;20263;-75
2022/04/19 05:04:22;;;;;;;;;;;5.90;99.90;;;;;;5079076;28;19917;-76
2022/04/19 05:06:48;;;;;;;;;;;6.10;99.90;;;;;;5079149;28;20515;-75
2022/04/19 05:09:13;;;;;;;;;;;6.20;99.90;;;;;;5079129;28;19938;-76
2022/04/19 05:11:42;;;;;;;;;;;6.20;99.90;;;;;;5077565;28;20016;-79
2022/04/19 05:14:08;;;;;;;;;;;6.30;99.90;;;;;;5077751;28;19919;-76
2022/04/19 05:16:36;;;;;;;;;;;6.50;99.90;;;;;;5079276;28;19908;-77
2022/04/19 05:19:05;;;;;;;;;;;6.50;99.90;;;;;;5077910;28;19913;-76
2022/04/19 05:21:31;;;;;;;;;;;6.60;99.90;;;;;;5078938;28;19909;-76
2022/04/19 05:23:56;;;;;;;;;;;6.70;99.90;;;;;;5077654;28;19962;-76
2022/04/19 05:26:24;;;;;;;;;;;6.70;99.90;;;;;;5078554;28;19958;-76
2022/04/19 05:28:50;;;;;;;;;;;6.80;99.90;;;;;;5077623;28;19908;-79
2022/04/19 05:31:16;;;;;;;;;;;6.90;99.90;;;;;;5078701;28;19908;-75
2022/04/19 05:33:41;;;;;;;;;;;7.00;99.90;;;;;;5078470;28;19916;-75
2022/04/19 05:36:07;;;;;;;;;;;7.00;99.90;;;;;;5078527;28;19908;-75
2022/04/19 05:38:32;;;;;;;;;;;7.20;99.90;;;;;;5078490;28;19915;-75
2022/04/19 05:40:58;;;;;;;;;;;7.30;99.90;;;;;;5076537;28;20003;-75
2022/04/19 05:43:24;;;;;;;;;;;7.50;99.90;;;;;;5078048;28;19983;-75
2022/04/19 05:45:50;;;;;;;;;;;7.60;99.90;;;;;;5075297;28;20015;-80
2022/04/19 05:48:15;;;;;;;;;;;7.70;99.90;;;;;;5056952;28;19916;-75
2022/04/19 05:50:42;;;;;;;;;;;7.80;99.90;;;;;;5074576;28;19920;-75
2022/04/19 05:53:08;;;;;;;;;;;8.00;99.90;;;;;;5075481;28;20015;-76
2022/04/19 05:55:33;;;;;;;;;;;8.10;99.90;;;;;;5059001;28;20016;-76
2022/04/19 05:57:59;;;;;;;;;;;8.20;99.90;;;;;;5076426;28;19920;-75
2022/04/19 06:00:24;;;;;;;;;;;8.40;99.90;;;;;;5077123;28;19936;-76
2022/04/19 06:05:34;;;;;;;;;;;8.60;99.90;;;;;;5076031;28;20314;-76
2022/04/19 06:08:00;;;;;;;;;;;8.70;99.90;;;;;;5075229;28;20007;-75
2022/04/19 06:10:25;;;;;;;;;;;8.90;99.90;;;;;;5075910;28;20007;-78
2022/04/19 06:12:51;;;;;;;;;;;9.00;99.90;;;;;;5075789;28;20322;-75
2022/04/19 06:15:17;;;;;;;;;;;9.20;99.90;;;;;;5074978;28;19999;-76
2022/04/19 06:17:42;;;;;;;;;;;9.30;99.90;;;;;;5070469;28;19923;-75
2022/04/19 06:20:09;;;;;;;;;;;9.40;99.90;;;;;;5074114;28;19908;-76
2022/04/19 06:22:35;;;;;;;;;;;9.60;99.90;;;;;;5065664;28;20185;-75
2022/04/19 06:25:01;;;;;;;;;;;9.70;99.90;;;;;;5076533;28;19912;-75
2022/04/19 06:27:27;;;;;;;;;;;9.80;99.90;;;;;;5076937;28;19927;-75
2022/04/19 06:29:53;;;;;;;;;;;10.00;99.90;;;;;;5076901;28;19913;-76
2022/04/19 06:32:19;;;;;;;;;;;10.20;99.90;;;;;;5076549;28;20227;-76
2022/04/19 06:34:44;;;;;;;;;;;10.30;99.90;;;;;;5076207;28;20313;-75
2022/04/19 06:37:10;;;;;;;;;;;10.40;99.90;;;;;;5077041;28;19928;-79
2022/04/19 06:39:36;;;;;;;;;;;10.50;99.90;;;;;;5076937;28;19995;-75
2022/04/19 06:42:01;;;;;;;;;;;10.70;99.90;;;;;;5069922;28;19919;-75
2022/04/19 06:44:27;;;;;;;;;;;10.80;99.90;;;;;;5076676;28;20173;-75
2022/04/19 06:46:52;;;;;;;;;;;11.00;99.90;;;;;;5069537;28;19920;-76
2022/04/19 06:49:18;;;;;;;;;;;11.10;99.90;;;;;;5088165;28;20357;-75
2022/04/19 06:51:44;;;;;;;;;;;11.30;99.90;;;;;;5061127;28;19909;-75
2022/04/19 06:54:09;;;;;;;;;;;11.40;99.90;;;;;;5076379;28;19912;-77
2022/04/19 06:56:35;;;;;;;;;;;11.60;99.90;;;;;;5067681;28;19916;-75
2022/04/19 06:59:01;;;;;;;;;;;11.70;99.90;;;;;;5079885;28;20219;-76
2022/04/19 07:01:27;;;;;;;;;;;11.80;99.90;;;;;;5076395;28;19913;-77
2022/04/19 07:03:53;;;;;;;;;;;11.90;99.90;;;;;;5075894;28;19909;-77
2022/04/19 07:06:19;;;;;;;;;;;12.10;99.90;;;;;;5075500;28;19909;-75
2022/04/19 07:08:44;;;;;;;;;;;12.30;99.90;;;;;;5076109;28;19950;-76
2022/04/19 07:11:12;;;;;;;;;;;12.60;99.90;;;;;;5075869;28;19970;-77
2022/04/19 07:13:37;;;;;;;;;;;13.00;99.90;;;;;;5061032;28;19923;-76
2022/04/19 07:16:03;;;;;;;;;;;13.30;99.90;;;;;;5075936;28;20003;-76
2022/04/19 07:18:29;;;;;;;;;;;13.50;99.90;;;;;;5074452;28;19912;-76
2022/04/19 07:26:38;;;;;;;;;;;14.20;99.90;;;;;;5075631;28;20009;-75
2022/04/19 07:29:04;;;;;;;;;;;14.30;99.90;;;;;;5075652;28;19920;-76
2022/04/19 07:31:31;;;;;;;;;;;14.20;99.90;;;;;;5062806;28;19912;-76
2022/04/19 07:33:57;;;;;;;;;;;14.30;99.90;;;;;;5072700;28;19917;-76
2022/04/19 07:36:22;;;;;;;;;;;14.40;99.90;;;;;;5075599;28;20290;-76
2022/04/19 07:38:48;;;;;;;;;;;14.70;99.90;;;;;;5074006;28;20254;-76
2022/04/19 07:41:14;;;;;;;;;;;15.20;99.90;;;;;;5074083;28;19922;-77
2022/04/19 07:43:40;;;;;;;;;;;15.50;99.90;;;;;;5060649;28;19915;-76
2022/04/19 07:46:05;;;;;;;;;;;15.60;99.90;;;;;;5075364;28;19915;-76
2022/04/19 07:48:31;;;;;;;;;;;15.80;99.90;;;;;;5074295;28;19916;-75
2022/04/19 07:50:57;;;;;;;;;;;16.00;99.60;;;;;;5075130;28;20007;-75
2022/04/19 07:53:23;;;;;;;;;;;16.00;98.40;;;;;;5075231;28;19936;-76
2022/04/19 07:55:49;;;;;;;;;;;16.10;99.90;;;;;;5069939;28;19923;-76
2022/04/19 07:58:14;;;;;;;;;;;16.20;98.30;;;;;;5049281;28;20007;-80
2022/04/19 08:00:40;;;;;;;;;;;16.20;99.20;;;;;;5070413;28;20864;-75
2022/04/19 08:03:05;;;;;;;;;;;16.30;99.40;;;;;;5071539;28;19912;-75
2022/04/19 08:05:31;;;;;;;;;;;16.50;98.70;;;;;;5071928;28;19931;-75
2022/04/19 08:07:57;;;;;;;;;;;16.50;97.90;;;;;;5072811;28;19916;-76
2022/04/19 08:10:23;;;;;;;;;;;16.60;98.40;;;;;;5075047;28;19920;-75
2022/04/19 08:12:49;;;;;;;;;;;16.90;97.50;;;;;;5070077;28;19916;-75
2022/04/19 08:15:14;;;;;;;;;;;16.90;96.60;;;;;;5070291;28;20260;-76
2022/04/19 08:17:40;;;;;;;;;;;17.30;96.50;;;;;;5071452;28;19912;-77
2022/04/19 08:20:06;;;;;;;;;;;17.80;94.40;;;;;;5070272;28;19917;-78
2022/04/19 08:22:32;;;;;;;;;;;17.70;93.40;;;;;;5066403;28;19916;-76
2022/04/19 08:24:57;;;;;;;;;;;17.70;92.70;;;;;;5069875;28;19923;-82
2022/04/19 08:27:23;;;;;;;;;;;17.80;93.70;;;;;;5070971;28;20210;-76
2022/04/19 08:29:48;;;;;;;;;;;18.30;91.70;;;;;;5070944;28;19908;-75
2022/04/19 08:32:14;;;;;;;;;;;18.50;87.70;;;;;;5070723;28;19979;-77
2022/04/19 08:34:40;;;;;;;;;;;18.80;86.00;;;;;;5083104;28;19917;-77
2022/04/19 08:37:06;;;;;;;;;;;18.90;83.40;;;;;;5070140;28;20563;-76
2022/04/19 08:39:32;;;;;;;;;;;19.00;84.30;;;;;;5068497;28;19990;-75
2022/04/19 08:41:57;;;;;;;;;;;18.70;85.40;;;;;;5065524;28;19916;-76
2022/04/19 08:44:23;;;;;;;;;;;18.50;90.30;;;;;;5069301;28;19931;-76
2022/04/19 08:46:49;;;;;;;;;;;18.50;89.50;;;;;;5058317;28;19913;-75
2022/04/19 08:49:16;;;;;;;;;;;18.40;90.80;;;;;;5066953;28;20011;-75
2022/04/19 08:51:42;;;;;;;;;;;18.30;88.50;;;;;;5071935;28;20002;-75
2022/04/19 08:59:40;;;;;;;;;;;17.70;89.20;;;;;;5063804;28;20230;-75
2022/04/19 09:02:06;;;;;;;;;;;17.70;91.40;;;;;;5069662;28;19912;-74
2022/04/19 09:04:31;;;;;;;;;;;17.70;89.00;;;;;;5069865;28;19913;-74
2022/04/19 09:07:00;;;;;;;;;;;17.60;90.80;;;;;;5071093;28;19912;-75
2022/04/19 09:09:34;;;;;;;;;;;17.70;90.80;;;;;;5050894;28;19961;-75
2022/04/19 09:12:06;;;;;;;;;;;17.50;87.00;;;;;;5071145;28;20420;-75
2022/04/19 09:14:31;;;;;;;;;;;17.50;86.70;;;;;;5078012;28;19923;-76
2022/04/19 09:17:10;;;;;;;;;;;17.50;86.90;;;;;;5064273;28;20015;-75
2022/04/19 09:19:37;;;;;;;;;;;17.40;87.60;;;;;;5074557;28;19958;-76
2022/04/19 09:22:03;;;;;;;;;;;17.10;85.60;;;;;;5070848;28;19913;-76
2022/04/19 09:24:29;;;;;;;;;;;17.10;88.10;;;;;;5071199;28;19923;-75
2022/04/19 09:26:55;;;;;;;;;;;17.10;85.60;;;;;;5070689;28;20004;-75
2022/04/19 09:29:21;;;;;;;;;;;17.20;89.20;;;;;;5061100;28;19917;-75
2022/04/19 09:31:48;;;;;;;;;;;17.40;90.70;;;;;;5065520;28;19920;-75
2022/04/19 09:34:33;;;;;;;;;;;17.50;89.10;;;;;;5070974;28;20192;-77
2022/04/19 09:37:08;;;;;;;;;;;17.50;86.90;;;;;;5070756;28;19912;-75
2022/04/19 09:39:36;;;;;;;;;;;17.30;90.30;;;;;;5070932;28;19913;-77
2022/04/19 09:42:04;;;;;;;;;;;17.30;85.60;;;;;;5070689;28;19912;-75
2022/04/19 09:44:29;;;;;;;;;;;17.40;85.60;;;;;;5070834;28;19912;-75
2022/04/19 09:47:04;;;;;;;;;;;17.50;91.30;;;;;;5070528;28;19919;-75
2022/04/19 09:50:00;;;;;;;;;;;17.60;87.90;;;;;;5070603;28;19923;-74
2022/04/19 09:52:26;;;;;;;;;;;17.60;84.00;;;;;;5028784;28;19943;-81
2022/04/19 09:55:05;;;;;;;;;;;17.80;86.90;;;;;;5011784;28;20563;-75
2022/04/19 09:57:34;;;;;;;;;;;17.70;84.80;;;;;;5028982;28;20279;-74
2022/04/19 10:00:00;;;;;;;;;;;17.70;83.40;;;;;;5027259;28;19920;-74
2022/04/19 10:08:11;;;;;;;;;;;17.70;86.00;;;;;;5033554;28;20003;-74
2022/04/19 10:10:40;;;;;;;;;;;17.70;87.50;;;;;;5033950;28;19921;-74
2022/04/19 10:13:06;;;;;;;;;;;17.70;85.30;;;;;;5017721;28;19917;-75
2022/04/19 10:15:32;;;;;;;;;;;17.80;84.50;;;;;;5034164;28;19917;-74
2022/04/19 10:17:58;;;;;;;;;;;17.90;85.80;;;;;;5034558;28;20003;-78
2022/04/19 10:20:31;;;;;;;;;;;17.90;84.60;;;;;;5016815;28;20424;-74
2022/04/19 10:23:01;;;;;;;;;;;17.90;89.10;;;;;;5032349;28;19920;-74
2022/04/19 10:25:35;;;;;;;;;;;17.80;85.90;;;;;;5016952;28;19917;-75
2022/04/19 10:28:04;;;;;;;;;;;17.80;81.70;;;;;;5027373;28;19975;-73
2022/04/19 10:30:33;;;;;;;;;;;17.80;88.40;;;;;;5072360;28;20279;-74
2022/04/19 10:33:00;;;;;;;;;;;18.00;86.90;;;;;;5068453;28;20276;-74
2022/04/19 10:35:25;;;;;;;;;;;17.90;85.10;;;;;;5063493;28;19999;-74
2022/04/19 10:38:09;;;;;;;;;;;17.80;81.60;;;;;;5071357;28;20008;-73
2022/04/19 10:40:51;;;;;;;;;;;18.00;83.30;;;;;;5073924;28;20006;-80
2022/04/19 10:43:17;;;;;;;;;;;18.10;83.70;;;;;;5073842;28;19921;-75
2022/04/19 10:45:46;;;;;;;;;;;18.00;79.90;;;;;;5075191;28;20007;-74
2022/04/19 10:48:14;;;;;;;;;;;18.10;81.60;;;;;;5074903;28;20093;-73
2022/04/19 10:50:40;;;;;;;;;;;18.20;84.00;;;;;;5057879;28;19990;-74
2022/04/19 10:53:07;;;;;;;;;;;18.20;78.40;;;;;;5068333;28;19960;-74
2022/04/19 10:55:34;;;;;;;;;;;18.30;82.60;;;;;;5075073;28;19938;-74
2022/04/19 11:00:53;;;;;;;;;;;18.40;78.80;;;;;;5074973;28;19997;-73
2022/04/19 11:03:20;;;;;;;;;;;18.40;77.30;;;;;;5074431;28;19920;-74
2022/04/19 11:05:45;;;;;;;;;;;18.40;75.80;;;;;;5076069;28;19913;-73
2022/04/19 11:08:20;;;;;;;;;;;18.20;75.10;;;;;;5075254;28;19924;-74
2022/04/19 11:10:46;;;;;;;;;;;18.20;75.70;;;;;;5070822;28;20392;-79
2022/04/19 11:13:12;;;;;;;;;;;18.30;80.40;;;;;;5075004;28;19954;-74
2022/04/19 11:15:38;;;;;;;;;;;18.30;78.50;;;;;;5076383;28;19959;-74
2022/04/19 11:21:13;;;;;;;;;;;18.50;77.30;;;;;;5066702;28;19923;-74
2022/04/19 11:23:49;;;;;;;;;;;18.60;76.70;;;;;;5076080;28;19915;-74
2022/04/19 11:26:26;;;;;;;;;;;18.60;76.20;;;;;;5070140;28;20240;-72
2022/04/19 11:29:10;;;;;;;;;;;18.60;75.20;;;;;;5076338;28;19913;-74
2022/04/19 11:31:36;;;;;;;;;;;18.60;76.70;;;;;;5075887;28;19909;-74
2022/04/19 11:34:11;;;;;;;;;;;18.70;82.50;;;;;;5075626;28;19923;-73
2022/04/19 11:36:36;;;;;;;;;;;18.80;77.90;;;;;;5074458;28;19912;-74
2022/04/19 11:39:02;;;;;;;;;;;18.70;77.20;;;;;;5074606;28;20007;-73
2022/04/19 11:46:51;;;;;;;;;;;19.10;79.50;;;;;;5075947;28;19915;-74
2022/04/19 11:49:19;;;;;;;;;;;19.00;75.40;;;;;;5076282;28;19912;-74
2022/04/19 11:51:52;;;;;;;;;;;18.90;79.50;;;;;;5074954;28;20003;-74
2022/04/19 11:54:31;;;;;;;;;;;18.80;78.80;;;;;;5070751;28;19919;-73
2022/04/19 11:57:03;;;;;;;;;;;18.90;80.50;;;;;;5074018;28;20196;-73
2022/04/19 11:59:32;;;;;;;;;;;18.70;84.60;;;;;;5072095;28;19999;-73
2022/04/19 12:01:58;;;;;;;;;;;18.50;87.70;;;;;;5070007;28;19919;-80
2022/04/19 12:04:25;;;;;;;;;;;18.20;89.80;;;;;;5074374;28;19909;-74
2022/04/19 12:06:52;;;;;;;;;;;18.30;90.70;;;;;;5074339;28;19908;-74
2022/04/19 12:09:18;;;;;;;;;;;18.60;81.90;;;;;;5072841;28;20211;-74
2022/04/19 12:11:45;;;;;;;;;;;18.90;80.40;;;;;;5072210;28;19921;-74
2022/04/19 12:14:22;;;;;;;;;;;18.90;79.30;;;;;;5055682;28;19969;-74
2022/04/19 12:16:53;;;;;;;;;;;19.10;76.00;;;;;;5085224;28;20050;-78
2022/04/19 12:19:30;;;;;;;;;;;19.00;88.20;;;;;;5072011;28;19912;-73
2022/04/19 12:21:56;;;;;;;;;;;18.60;87.90;;;;;;5074062;28;19934;-74
2022/04/19 12:24:22;;;;;;;;;;;18.40;90.40;;;;;;5072949;28;20003;-76
2022/04/19 12:27:03;;;;;;;;;;;18.10;90.70;;;;;;5068538;28;19920;-74
2022/04/19 12:29:29;;;;;;;;;;;17.80;90.40;;;;;;5067664;28;19925;-73
2022/04/19 12:32:01;;;;;;;;;;;17.70;91.70;;;;;;5066596;28;20211;-73
2022/04/19 12:34:34;;;;;;;;;;;17.60;92.00;;;;;;5068131;28;19920;-75
2022/04/19 12:37:11;;;;;;;;;;;17.40;90.70;;;;;;5069694;28;19908;-73
2022/04/19 12:39:37;;;;;;;;;;;17.30;90.90;;;;;;5070391;28;19956;-73
2022/04/19 12:42:04;;;;;;;;;;;17.10;92.40;;;;;;5068372;28;19939;-75
2022/04/19 12:44:29;;;;;;;;;;;17.20;93.00;;;;;;5066971;28;19966;-75
2022/04/19 12:46:55;;;;;;;;;;;17.30;92.20;;;;;;5055206;28;19908;-74
2022/04/19 12:49:23;;;;;;;;;;;17.10;92.60;;;;;;5074440;28;19920;-74
2022/04/19 12:52:05;;;;;;;;;;;17.00;93.80;;;;;;5063555;28;19915;-74
2022/04/19 12:54:32;;;;;;;;;;;17.10;92.80;;;;;;5050331;28;20229;-73
2022/04/19 12:57:02;;;;;;;;;;;17.00;92.90;;;;;;5055390;28;19916;-74
2022/04/19 12:59:31;;;;;;;;;;;17.00;93.20;;;;;;5067363;28;19919;-82
2022/04/19 13:01:57;;;;;;;;;;;16.90;93.70;;;;;;5070168;28;19920;-73
2022/04/19 13:04:23;;;;;;;;;;;16.80;93.70;;;;;;5069382;28;20211;-73
2022/04/19 13:12:17;;;;;;;;;;;16.80;95.10;;;;;;5073109;28;19933;-73
2022/04/19 13:14:43;;;;;;;;;;;16.90;96.10;;;;;;5073965;28;19912;-75
2022/04/19 13:17:11;;;;;;;;;;;16.80;95.10;;;;;;5072554;28;19963;-81
2022/04/19 13:19:37;;;;;;;;;;;16.90;96.00;;;;;;5071614;28;19924;-75
2022/04/19 13:22:02;;;;;;;;;;;16.90;95.60;;;;;;5054229;28;19913;-72
2022/04/19 13:24:28;;;;;;;;;;;16.80;93.90;;;;;;5058096;28;19920;-74
2022/04/19 13:26:54;;;;;;;;;;;16.80;94.30;;;;;;5067004;28;19917;-74
2022/04/19 13:29:20;;;;;;;;;;;16.60;94.60;;;;;;5058876;28;19988;-74
2022/04/19 13:31:45;;;;;;;;;;;16.70;95.30;;;;;;5075929;28;19923;-74
2022/04/19 13:34:11;;;;;;;;;;;16.90;94.90;;;;;;5077713;28;19920;-73
2022/04/19 13:36:37;;;;;;;;;;;16.90;94.50;;;;;;5066026;28;20276;-73
2022/04/19 13:39:05;;;;;;;;;;;16.90;95.40;;;;;;5064527;28;19917;-74
2022/04/19 13:41:30;;;;;;;;;;;16.70;95.20;;;;;;5057331;28;19909;-74
2022/04/19 13:43:56;;;;;;;;;;;16.70;95.50;;;;;;5072790;28;19923;-72
2022/04/19 13:46:21;;;;;;;;;;;16.70;94.90;;;;;;5073666;28;20322;-73
2022/04/19 13:48:47;;;;;;;;;;;16.50;95.60;;;;;;5074240;28;20559;-73
2022/04/19 13:51:13;;;;;;;;;;;16.60;96.70;;;;;;5077158;28;19947;-74
2022/04/19 13:53:38;;;;;;;;;;;16.60;95.30;;;;;;5067311;28;19956;-74
2022/04/19 13:56:05;;;;;;;;;;;16.70;94.80;;;;;;5066414;28;19913;-74
2022/04/19 13:58:30;;;;;;;;;;;16.60;97.00;;;;;;5077666;28;20010;-73
2022/04/19 14:00:56;;;;;;;;;;;16.70;97.00;;;;;;5078191;28;20038;-74
2022/04/19 14:03:21;;;;;;;;;;;16.70;96.40;;;;;;5078440;28;19957;-72
2022/04/19 14:05:47;;;;;;;;;;;16.70;96.70;;;;;;5077006;28;19914;-73
2022/04/19 14:08:13;;;;;;;;;;;16.80;95.40;;;;;;5074493;28;19920;-74
2022/04/19 14:10:38;;;;;;;;;;;16.80;95.10;;;;;;5074301;28;20235;-74
2022/04/19 14:13:04;;;;;;;;;;;16.80;94.60;;;;;;5057833;28;19967;-73
2022/04/19 14:15:29;;;;;;;;;;;16.70;96.20;;;;;;5062729;28;19919;-72
2022/04/19 14:17:56;;;;;;;;;;;16.80;95.20;;;;;;5067559;28;20027;-73
2022/04/19 14:20:22;;;;;;;;;;;16.90;95.90;;;;;;5057831;28;19916;-74
2022/04/19 14:22:47;;;;;;;;;;;16.80;97.00;;;;;;5071726;28;20372;-73
2022/04/19 14:25:13;;;;;;;;;;;16.80;96.10;;;;;;5076426;28;19913;-74
2022/04/19 14:27:38;;;;;;;;;;;16.80;96.50;;;;;;5075444;28;19909;-74
2022/04/19 14:35:33;;;;;;;;;;;16.70;95.60;;;;;;5074562;28;19920;-72
2022/04/19 14:37:59;;;;;;;;;;;16.60;95.20;;;;;;5076735;28;20329;-73
2022/04/19 14:40:24;;;;;;;;;;;16.70;94.70;;;;;;5076722;28;19995;-72
2022/04/19 14:42:50;;;;;;;;;;;16.70;95.10;;;;;;5075049;28;20312;-79
2022/04/19 14:45:16;;;;;;;;;;;16.80;96.30;;;;;;5075092;28;19912;-73
2022/04/19 14:47:42;;;;;;;;;;;16.70;95.70;;;;;;5075396;28;20318;-74
2022/04/19 14:50:08;;;;;;;;;;;16.70;94.00;;;;;;5073306;28;19912;-73
2022/04/19 14:52:33;;;;;;;;;;;16.70;95.70;;;;;;5074245;28;19952;-73
2022/04/19 14:54:59;;;;;;;;;;;16.80;95.40;;;;;;5075323;28;19920;-81
2022/04/19 14:57:25;;;;;;;;;;;16.90;94.80;;;;;;5075777;28;19909;-73
2022/04/19 14:59:50;;;;;;;;;;;16.80;94.30;;;;;;5075655;28;20372;-72
2022/04/19 15:02:16;;;;;;;;;;;16.90;94.00;;;;;;5075530;28;19908;-73
2022/04/19 15:04:42;;;;;;;;;;;17.00;93.40;;;;;;5072498;28;20223;-73
2022/04/19 15:07:07;;;;;;;;;;;17.00;94.90;;;;;;5076076;28;19958;-74
2022/04/19 15:09:33;;;;;;;;;;;17.00;94.50;;;;;;5075720;28;19908;-72
2022/04/19 15:12:02;;;;;;;;;;;17.10;93.60;;;;;;5075741;28;19928;-73
2022/04/19 15:14:28;;;;;;;;;;;17.30;94.00;;;;;;5071908;28;20219;-72